Etusivu
METAR-TAF:

METAR-TAF

Lentoasemat :

Kimmirut, Nunavut, Kanada

Leveyspiiri: 62-51N, Pituuspiiri: 069-53W, korkeus merenpinnasta: 53 m

Tämänhetkinen sää

Tämä raportti tehtiin 14 tuntia ja 6 minuuttia sitten, kello 21.00 UTC
Tuuli 10 kn koillisesta
Lämpötila -11°C
Kosteus 85%
Ilmanpaine 1001 hPa
Näkyvyys: 24.1 km
Hajanaisia pilviä 4500 ft:n korkeudessa
Hajonneita pilviä 13000 ft:n korkeudessa

METAR: CYLC 052100Z 05010KT 15SM SCT045 BKN130 M11/M13 A2955 RMK SC3AC3 1.2/1 ONE LOOSE LASTSTFD OBS/NXT 061200Z SLP012

Aika: 06:06 (11:06 UTC)


TAF: puuttuu

Säähavainnot ja -ennusteet yli 4000 lentoasemalta (METAR- ja TAF-raportit).

Käytössä olevat sääasemat on merkitty karttaan keltaisilla ja punaisilla pisteillä.

Aseta hiiri pisteen päälle nähdäksesi sääaseman nimen.

Klikkaa sitten nähdäksesi säähavainnot ja -ennusteet.

Kartan vaihtaminen: klikkaa mustalla rastilla varustettuja vihreitä pisteitä, niin voit zoomata sisään; viivalla varustettua vihreää pistettä, niin voit zoomata ulos tai vihreitä nuolia, niin pääset viereisille kartoille.


METAR-TAF: